Time;durP1;ratioP1;P1;durP2;ratioP2;P2;SDS_P1;SDS_P2;PMS_P1;PMS_P2;Temp;Humidity;BMP_temperature;BMP_pressure;BME280_temperature;BME280_humidity;BME280_pressure;Samples;Min_cycle;Max_cycle;Signal;HPM_P1;HPM_P2
2022/12/10 00:02:11;;;;;;;21.37;9.13;;;;;;;3.96;100.00;100293.99;1798367;80;21029;-67
2022/12/10 00:04:38;;;;;;;20.33;8.30;;;;;;;3.95;100.00;100298.50;1832391;78;21077;-66
2022/12/10 00:07:04;;;;;;;21.33;8.93;;;;;;;3.95;100.00;100299.84;1793570;80;21038;-67
2022/12/10 00:09:32;;;;;;;21.33;8.97;;;;;;;3.95;100.00;100301.18;1793475;80;21037;-67
2022/12/10 00:11:59;;;;;;;20.80;8.17;;;;;;;3.98;100.00;100304.08;1793446;80;21034;-67
2022/12/10 00:14:26;;;;;;;20.00;7.90;;;;;;;3.98;100.00;100302.28;1793391;80;21085;-67
2022/12/10 00:16:54;;;;;;;24.53;9.13;;;;;;;3.99;100.00;100311.99;1793654;80;21049;-67
2022/12/10 00:19:21;;;;;;;20.23;8.30;;;;;;;3.98;100.00;100304.95;1793538;80;21190;-69
2022/12/10 00:21:49;;;;;;;20.30;8.63;;;;;;;3.99;100.00;100301.78;1793465;80;20994;-69
2022/12/10 00:24:15;;;;;;;24.20;9.83;;;;;;;3.99;100.00;100303.12;1793220;80;21515;-69
2022/12/10 00:26:42;;;;;;;22.13;8.90;;;;;;;4.00;100.00;100315.51;1793276;80;21088;-69
2022/12/10 00:29:11;;;;;;;19.30;7.73;;;;;;;4.02;100.00;100313.59;1793372;79;21168;-69
2022/12/10 00:31:46;;;;;;;17.93;7.67;;;;;;;4.04;100.00;100313.44;1758155;82;21038;-69
2022/12/10 00:34:18;;;;;;;16.13;6.97;;;;;;;4.07;100.00;100316.75;1757972;82;21153;-69
2022/12/10 00:36:48;;;;;;;19.87;7.70;;;;;;;4.06;100.00;100306.17;1758452;82;21081;-69
2022/12/10 00:39:18;;;;;;;18.27;6.90;;;;;;;4.06;100.00;100308.34;1732930;82;21038;-69
2022/12/10 00:41:46;;;;;;;16.87;7.53;;;;;;;4.07;100.00;100305.17;1758063;81;21029;-68
2022/12/10 00:44:14;;;;;;;16.67;7.00;;;;;;;4.09;100.00;100312.59;1758284;82;21442;-69
2022/12/10 00:46:42;;;;;;;16.57;6.53;;;;;;;4.09;100.00;100313.47;1758165;82;21046;-69
2022/12/10 00:49:10;;;;;;;16.37;6.97;;;;;;;4.11;100.00;100320.03;1758390;82;21046;-69
2022/12/10 00:51:36;;;;;;;16.93;6.87;;;;;;;4.13;100.00;100315.41;1758387;82;21037;-69
2022/12/10 00:54:04;;;;;;;14.23;6.53;;;;;;;4.14;100.00;100321.11;1758716;82;21037;-70
2022/12/10 00:56:32;;;;;;;16.27;6.20;;;;;;;4.15;100.00;100317.47;1758187;82;21034;-69
2022/12/10 00:59:00;;;;;;;13.73;5.77;;;;;;;4.16;100.00;100318.69;1758289;82;21146;-69
2022/12/10 01:01:37;;;;;;;13.50;6.10;;;;;;;4.16;100.00;100316.01;1758155;82;21097;-69
2022/12/10 01:04:14;;;;;;;15.03;6.37;;;;;;;4.16;100.00;100323.16;1765074;81;21041;-69
2022/12/10 01:06:52;;;;;;;12.63;5.93;;;;;;;4.14;100.00;100318.42;1765680;81;21034;-69
2022/12/10 01:09:23;;;;;;;12.73;5.57;;;;;;;4.13;100.00;100309.56;1765519;81;21483;-69
2022/12/10 01:11:59;;;;;;;12.30;5.80;;;;;;;4.13;100.00;100312.73;1735352;83;21097;-69
2022/12/10 01:14:30;;;;;;;13.40;5.53;;;;;;;4.13;100.00;100314.91;1711035;83;21018;-69
2022/12/10 01:17:02;;;;;;;13.17;5.97;;;;;;;4.15;100.00;100312.11;1735663;83;21041;-69
2022/12/10 01:19:30;;;;;;;12.13;5.70;;;;;;;4.16;100.00;100313.80;1735550;83;21077;-69
2022/12/10 01:21:57;;;;;;;13.07;5.77;;;;;;;4.14;100.00;100321.98;1735293;83;21053;-69
2022/12/10 01:24:26;;;;;;;12.77;5.87;;;;;;;4.13;100.00;100320.27;1735360;83;21054;-69
2022/12/10 01:26:54;;;;;;;12.03;5.53;;;;;;;4.13;100.00;100324.77;1735434;83;21053;-69
2022/12/10 01:29:23;;;;;;;14.13;5.47;;;;;;;4.10;100.00;100325.02;1735449;83;21076;-69
2022/12/10 01:31:51;;;;;;;12.50;5.70;;;;;;;4.09;100.00;100328.65;1766005;81;21523;-69
2022/12/10 01:34:18;;;;;;;11.10;5.70;;;;;;;4.06;100.00;100325.73;1767237;81;20982;-69
2022/12/10 01:36:53;;;;;;;11.80;5.23;;;;;;;4.05;100.00;100329.88;1766992;81;21033;-69
2022/12/10 01:39:21;;;;;;;11.13;5.40;;;;;;;4.02;100.00;100326.97;1767229;81;20961;-69
2022/12/10 01:41:57;;;;;;;11.63;5.47;;;;;;;4.00;100.00;100324.87;1766973;81;21045;-69
2022/12/10 01:44:29;;;;;;;11.77;5.33;;;;;;;4.01;100.00;100324.41;1767028;81;21040;-69
2022/12/10 01:46:59;;;;;;;10.88;5.15;;;;;;;4.01;100.00;100317.23;1766997;81;21049;-69
2022/12/10 01:49:39;;;;;;;12.03;5.73;;;;;;;3.99;100.00;100320.02;1767182;81;21009;-69
2022/12/10 01:52:09;;;;;;;12.13;5.50;;;;;;;3.96;100.00;100316.24;1742321;81;21053;-69
2022/12/10 01:54:43;;;;;;;10.87;4.83;;;;;;;3.97;100.00;100312.61;1767221;81;20997;-69
2022/12/10 01:57:18;;;;;;;11.33;5.23;;;;;;;3.99;100.00;100316.50;1767076;81;21029;-69
2022/12/10 01:59:47;;;;;;;13.03;5.70;;;;;;;4.02;100.00;100320.28;1767099;81;21041;-69
2022/12/10 02:02:44;;;;;;;11.10;4.90;;;;;;;4.02;100.00;100321.62;1767154;81;21017;-69
2022/12/10 02:05:25;;;;;;;11.17;5.40;;;;;;;4.02;100.00;100315.39;1766503;81;21028;-69
2022/12/10 02:08:01;;;;;;;14.67;6.40;;;;;;;4.02;100.00;100309.58;1766168;81;21106;-69
2022/12/10 02:10:59;;;;;;;14.13;5.87;;;;;;;4.01;100.00;100305.19;1767178;81;21498;-68
2022/12/10 02:13:38;;;;;;;12.90;6.17;;;;;;;4.01;100.00;100313.70;1766843;81;21041;-68
2022/12/10 02:16:16;;;;;;;13.30;6.10;;;;;;;3.99;100.00;100309.81;1767113;81;21030;-69
2022/12/10 02:19:00;;;;;;;13.43;5.60;;;;;;;3.98;100.00;100310.31;1766603;81;21065;-69
2022/12/10 02:21:34;;;;;;;16.00;6.50;;;;;;;3.99;100.00;100303.12;1766751;81;21495;-69
2022/12/10 02:24:05;;;;;;;11.20;5.30;;;;;;;4.00;100.00;100306.14;1767152;81;21010;-69
2022/12/10 02:26:52;;;;;;;10.47;5.03;;;;;;;4.01;100.00;100306.52;1767064;81;21554;-69
2022/12/10 02:29:23;;;;;;;11.23;5.53;;;;;;;4.02;100.00;100304.69;1766898;81;21565;-69
2022/12/10 02:31:55;;;;;;;11.53;5.40;;;;;;;4.01;100.00;100298.99;1765367;81;21078;-69
2022/12/10 02:34:24;;;;;;;10.73;5.20;;;;;;;4.01;100.00;100290.97;1748695;82;21030;-69
2022/12/10 02:36:52;;;;;;;9.80;5.00;;;;;;;3.98;100.00;100281.34;1749931;82;21437;-68
2022/12/10 02:39:24;;;;;;;10.93;5.03;;;;;;;3.99;100.00;100283.05;1749863;82;21536;-69
2022/12/10 02:41:54;;;;;;;10.50;5.00;;;;;;;4.00;100.00;100275.38;1749690;82;21069;-69
2022/12/10 02:44:22;;;;;;;10.90;4.87;;;;;;;3.99;100.00;100273.19;1749970;82;21081;-69
2022/12/10 02:46:51;;;;;;;10.17;5.07;;;;;;;3.99;100.00;100269.67;1749801;82;20995;-69
2022/12/10 02:49:18;;;;;;;11.40;5.57;;;;;;;4.00;100.00;100270.02;1749931;82;21007;-69
2022/12/10 02:51:46;;;;;;;16.73;7.70;;;;;;;4.01;100.00;100266.88;1749659;82;21050;-69
2022/12/10 02:54:39;;;;;;;14.10;6.10;;;;;;;4.01;100.00;100260.19;1749690;82;21527;-69
2022/12/10 02:57:42;;;;;;;16.00;8.13;;;;;;;4.00;100.00;100266.01;1749697;82;21089;-69
2022/12/10 03:00:18;;;;;;;;;;;;;;;3.96;100.00;100257.87;1752426;82;21042;-68
2022/12/10 03:02:55;;;;;;;14.67;7.33;;;;;;;3.92;100.00;100251.92;1746153;82;20113;-69
2022/12/10 03:05:27;;;;;;;14.77;6.83;;;;;;;3.90;100.00;100257.89;1749960;82;21097;-69
2022/12/10 03:08:29;;;;;;;11.93;5.87;;;;;;;3.90;100.00;100252.53;1750037;82;21665;-69
2022/12/10 03:11:13;;;;;;;12.10;6.20;;;;;;;3.90;100.00;100253.03;1749806;82;21050;-69
2022/12/10 03:13:55;;;;;;;16.87;7.80;;;;;;;3.89;100.00;100246.80;1750108;82;21042;-69
2022/12/10 03:16:23;;;;;;;13.30;6.33;;;;;;;3.89;100.00;100243.29;1750117;82;21562;-69
2022/12/10 03:18:53;;;;;;;13.37;6.23;;;;;;;3.89;100.00;100233.92;1750085;82;21034;-69
2022/12/10 03:21:21;;;;;;;17.50;7.53;;;;;;;3.89;100.00;100230.75;1750152;82;20998;-69
2022/12/10 03:23:51;;;;;;;17.40;7.63;;;;;;;3.91;100.00;100240.00;1750109;82;21013;-68
2022/12/10 03:26:19;;;;;;;19.30;8.80;;;;;;;3.92;100.00;100240.37;1749974;82;21520;-69
2022/12/10 03:28:51;;;;;;;20.53;9.30;;;;;;;3.95;100.00;100242.31;1749990;82;21417;-69
2022/12/10 03:31:23;;;;;;;18.83;8.10;;;;;;;3.97;100.00;100235.51;1749799;82;21066;-69
2022/12/10 03:33:54;;;;;;;18.80;8.10;;;;;;;3.98;100.00;100238.06;1763827;81;21005;-68
2022/12/10 03:36:22;;;;;;;17.93;8.07;;;;;;;4.01;100.00;100237.45;1742211;81;21041;-69
2022/12/10 03:38:51;;;;;;;19.80;9.27;;;;;;;4.04;100.00;100238.52;1742419;81;20977;-69
2022/12/10 03:41:17;;;;;;;21.70;9.33;;;;;;;4.05;100.00;100238.39;1767128;81;21090;-69
2022/12/10 03:43:55;;;;;;;23.47;10.47;;;;;;;4.07;100.00;100236.47;1767417;81;21490;-69
2022/12/10 03:46:25;;;;;;;20.10;8.63;;;;;;;4.08;100.00;100230.13;1767160;81;21040;-69
2022/12/10 03:48:52;;;;;;;21.77;9.70;;;;;;;4.07;100.00;100229.78;1767478;81;21059;-68
2022/12/10 03:51:21;;;;;;;19.83;8.90;;;;;;;4.06;100.00;100222.72;1767426;81;21017;-68
2022/12/10 03:53:50;;;;;;;22.87;10.60;;;;;;;4.07;100.00;100226.23;1767338;81;21053;-68
2022/12/10 03:56:18;;;;;;;22.90;10.40;;;;;;;4.08;100.00;100221.25;1767490;81;21463;-68
2022/12/10 03:58:46;;;;;;;21.13;9.83;;;;;;;4.07;100.00;100219.55;1767189;81;21057;-68
2022/12/10 04:01:13;;;;;;;20.43;9.03;;;;;;;4.05;100.00;100217.48;1767567;81;21013;-68
2022/12/10 04:03:41;;;;;;;20.80;8.40;;;;;;;4.04;100.00;100211.29;1767198;81;21502;-68
2022/12/10 04:06:17;;;;;;;22.13;10.13;;;;;;;4.03;100.00;100212.25;1767528;81;21535;-68
2022/12/10 04:08:45;;;;;;;24.43;10.53;;;;;;;4.03;100.00;100206.91;1767168;81;21009;-68
2022/12/10 04:11:12;;;;;;;28.97;13.23;;;;;;;4.03;100.00;100208.73;1767476;81;20990;-68
2022/12/10 04:16:29;;;;;;;24.60;11.47;;;;;;;4.06;100.00;100217.86;1767086;81;21041;-68
2022/12/10 04:19:00;;;;;;;23.60;13.03;;;;;;;4.05;100.00;100216.98;1767160;81;21045;-68
2022/12/10 04:27:04;;;;;;;23.37;10.43;;;;;;;4.06;100.00;100211.17;1767331;81;21041;-68
2022/12/10 04:29:31;;;;;;;25.30;11.07;;;;;;;4.04;100.00;100208.62;1767377;80;21045;-68
2022/12/10 04:31:58;;;;;;;23.70;10.47;;;;;;;4.06;100.00;100221.88;1767339;81;21503;-68
2022/12/10 04:34:25;;;;;;;22.93;10.67;;;;;;;4.07;100.00;100223.09;1766486;81;21216;-68
2022/12/10 04:36:52;;;;;;;24.97;11.17;;;;;;;4.05;100.00;100216.15;1750520;81;21054;-68
2022/12/10 04:39:20;;;;;;;24.33;11.33;;;;;;;4.04;100.00;100220.66;1749697;82;21508;-68
2022/12/10 04:41:49;;;;;;;22.70;10.50;;;;;;;4.04;100.00;100221.99;1749838;82;21050;-68
2022/12/10 04:44:16;;;;;;;21.47;8.87;;;;;;;4.00;100.00;100231.22;1749971;82;21515;-67
2022/12/10 04:46:43;;;;;;;23.10;10.27;;;;;;;3.99;100.00;100233.55;1749855;82;21054;-67
2022/12/10 04:49:10;;;;;;;23.80;10.23;;;;;;;4.00;100.00;100231.22;1750119;82;21082;-67
2022/12/10 04:51:37;;;;;;;18.00;8.43;;;;;;;3.98;100.00;100226.02;1749992;82;21515;-68
2022/12/10 04:54:05;;;;;;;19.50;9.40;;;;;;;3.99;100.00;100230.38;1749879;82;21098;-68
2022/12/10 04:56:33;;;;;;;22.63;9.17;;;;;;;4.01;100.00;100229.42;1749857;82;21531;-67
2022/12/10 04:59:00;;;;;;;19.50;9.20;;;;;;;4.01;100.00;100228.92;1750007;82;21070;-68
2022/12/10 05:01:27;;;;;;;25.40;10.90;;;;;;;4.02;100.00;100239.12;1749709;82;21019;-68
2022/12/10 05:03:54;;;;;;;21.27;9.93;;;;;;;4.03;100.00;100227.47;1750164;82;21093;-67
2022/12/10 05:06:23;;;;;;;24.53;11.13;;;;;;;4.03;100.00;100228.80;1749914;82;21046;-67
2022/12/10 05:08:51;;;;;;;21.83;9.97;;;;;;;4.03;100.00;100230.98;1749948;82;21460;-67
2022/12/10 05:11:20;;;;;;;22.03;9.90;;;;;;;4.06;100.00;100237.44;1749844;82;21515;-68
2022/12/10 05:13:47;;;;;;;24.53;11.20;;;;;;;4.09;100.00;100245.22;1750051;82;21034;-68
2022/12/10 05:16:16;;;;;;;21.33;9.70;;;;;;;4.09;100.00;100245.69;1750013;82;21086;-68
2022/12/10 05:18:43;;;;;;;19.30;9.33;;;;;;;4.09;100.00;100248.36;1749783;82;21045;-68
2022/12/10 05:21:13;;;;;;;18.87;8.40;;;;;;;4.10;100.00;100239.38;1750151;82;20974;-68
2022/12/10 05:23:43;;;;;;;22.53;10.60;;;;;;;4.11;100.00;100252.63;1750004;82;21030;-67
2022/12/10 05:26:13;;;;;;;22.83;10.20;;;;;;;4.11;100.00;100251.30;1750061;82;21006;-67
2022/12/10 05:28:47;;;;;;;22.87;10.83;;;;;;;4.12;100.00;100250.30;1750035;82;20986;-68
2022/12/10 05:31:18;;;;;;;21.03;9.57;;;;;;;4.12;100.00;100252.98;1748963;82;21582;-68
2022/12/10 05:33:46;;;;;;;18.47;9.13;;;;;;;4.13;100.00;100260.55;1749739;82;21050;-68
2022/12/10 05:36:15;;;;;;;20.67;9.23;;;;;;;4.11;100.00;100264.67;1759771;81;21538;-67
2022/12/10 05:38:42;;;;;;;23.00;10.93;;;;;;;4.14;100.00;100271.59;1767368;81;21198;-68
2022/12/10 05:41:13;;;;;;;20.30;8.63;;;;;;;4.14;100.00;100275.14;1767318;81;21041;-68
2022/12/10 05:43:41;;;;;;;20.30;8.80;;;;;;;4.15;100.00;100278.16;1767397;81;21072;-68
2022/12/10 05:46:13;;;;;;;23.23;9.33;;;;;;;4.12;100.00;100278.41;1767460;81;21013;-68
2022/12/10 05:48:40;;;;;;;23.13;10.30;;;;;;;4.13;100.00;100280.11;1766210;81;21566;-68
2022/12/10 05:51:10;;;;;;;22.93;10.27;;;;;;;4.12;100.00;100287.77;1767385;81;21017;-68
2022/12/10 05:53:37;;;;;;;22.67;9.97;;;;;;;4.12;100.00;100282.91;1767337;81;21036;-70
2022/12/10 05:56:08;;;;;;;20.90;9.53;;;;;;;4.09;100.00;100280.47;1767231;81;21041;-68
2022/12/10 05:58:40;;;;;;;21.67;9.67;;;;;;;4.10;100.00;100282.19;1767148;81;21006;-68
2022/12/10 06:01:13;;;;;;;18.27;8.17;;;;;;;4.10;100.00;100282.19;1767137;81;21197;-69
2022/12/10 06:03:40;;;;;;;19.57;8.30;;;;;;;4.11;100.00;100279.39;1767510;81;21447;-69
2022/12/10 06:06:07;;;;;;;19.50;9.00;;;;;;;4.14;100.00;100280.49;1767345;81;21049;-69
2022/12/10 06:08:35;;;;;;;21.07;8.57;;;;;;;4.18;100.00;100279.76;1767500;81;21010;-69
2022/12/10 06:11:06;;;;;;;20.47;9.93;;;;;;;4.19;100.00;100266.22;1766987;81;21041;-68
2022/12/10 06:13:34;;;;;;;18.52;8.73;;;;;;;4.23;100.00;100270.84;1767645;81;21093;-68
2022/12/10 06:37:11;;;;;;;21.70;9.83;;;;;;;4.46;100.00;100507.78;1791044;80;23394;-77
2022/12/10 06:39:38;;;;;;;19.93;9.27;;;;;;;4.51;100.00;100227.92;1760666;80;21018;-78
2022/12/10 06:42:05;;;;;;;21.67;9.83;;;;;;;4.55;100.00;100224.03;1760852;81;20980;-77
2022/12/10 06:44:32;;;;;;;22.97;10.97;;;;;;;4.59;100.00;100219.27;1760486;81;21005;-77
2022/12/10 06:46:59;;;;;;;22.73;9.73;;;;;;;4.62;100.00;100222.17;1759571;81;21108;-76
2022/12/10 06:49:26;;;;;;;20.50;9.57;;;;;;;4.64;100.00;100231.80;1760443;81;21038;-74
2022/12/10 06:51:53;;;;;;;22.23;9.53;;;;;;;4.69;100.00;100242.98;1760219;81;21558;-75
2022/12/10 06:54:19;;;;;;;23.50;10.63;;;;;;;4.72;100.00;100245.88;1759604;81;21056;-75
2022/12/10 06:56:46;;;;;;;20.73;9.60;;;;;;;4.78;100.00;100241.83;1758401;81;21077;-76
2022/12/10 06:59:13;;;;;;;25.53;11.07;;;;;;;4.82;100.00;100248.15;1759262;81;21089;-75
2022/12/10 07:01:40;;;;;;;24.10;11.50;;;;;;;4.89;100.00;100248.49;1758500;81;21076;-79
2022/12/10 07:04:07;;;;;;;26.53;11.77;;;;;;;4.95;100.00;100249.30;1758500;81;21467;-76
2022/12/10 07:06:35;;;;;;;25.57;11.70;;;;;;;5.01;100.00;100240.75;1759193;80;21582;-75
2022/12/10 07:09:01;;;;;;;22.77;11.03;;;;;;;5.07;100.00;100239.38;1760746;81;21472;-78
2022/12/10 07:11:30;;;;;;;23.73;10.57;;;;;;;5.11;100.00;100242.98;1760310;81;21037;-79
2022/12/10 07:13:58;;;;;;;22.40;9.70;;;;;;;5.16;100.00;100239.92;1760424;80;20994;-78
2022/12/10 07:16:27;;;;;;;24.30;11.20;;;;;;;5.22;100.00;100240.72;1760547;81;21032;-80
2022/12/10 07:18:56;;;;;;;23.87;11.53;;;;;;;5.27;100.00;100241.18;1760697;81;21471;-77
2022/12/10 07:21:28;;;;;;;29.37;12.77;;;;;;;5.30;100.00;100235.56;1760375;81;21021;-78
2022/12/10 07:23:57;;;;;;;24.12;11.12;;;;;;;5.35;100.00;100241.88;1760569;81;21528;-78
2022/12/10 07:26:26;;;;;;;27.13;11.17;;;;;;;5.38;100.00;100236.23;1760303;81;21609;-77
2022/12/10 07:28:52;;;;;;;25.20;11.60;;;;;;;5.42;100.00;100236.81;1730847;81;21066;-78
2022/12/10 07:31:21;;;;;;;27.37;11.63;;;;;;;5.45;100.00;100244.60;1760341;81;21033;-78
2022/12/10 07:33:51;;;;;;;26.60;12.47;;;;;;;5.46;100.00;100240.45;1757652;81;21087;-78
2022/12/10 07:36:19;;;;;;;27.97;12.77;;;;;;;5.48;100.00;100238.48;1757094;81;21045;-79
2022/12/10 07:38:46;;;;;;;25.97;11.37;;;;;;;5.45;100.00;100241.45;1756321;81;21506;-79
2022/12/10 07:41:14;;;;;;;24.47;11.20;;;;;;;5.44;100.00;100245.60;1756479;80;21089;-79
2022/12/10 07:43:43;;;;;;;25.63;12.17;;;;;;;5.43;100.00;100242.05;1756149;82;21068;-80
2022/12/10 07:46:13;;;;;;;24.60;12.23;;;;;;;5.43;100.00;100239.86;1755937;82;21511;-77
2022/12/10 07:48:41;;;;;;;24.30;11.33;;;;;;;5.40;100.00;100231.61;1756319;82;21028;-78
2022/12/10 07:51:08;;;;;;;27.57;12.43;;;;;;;5.41;100.00;100223.06;1756147;80;21060;-80
2022/12/10 07:53:35;;;;;;;20.93;9.63;;;;;;;5.40;100.00;100221.35;1755981;82;21126;-79
2022/12/10 07:56:02;;;;;;;21.47;10.03;;;;;;;5.38;100.00;100218.80;1757141;82;21080;-80
2022/12/10 07:58:29;;;;;;;24.77;10.20;;;;;;;5.36;100.00;100221.27;1757301;82;20994;-78
2022/12/10 08:01:21;;;;;;;21.00;9.57;;;;;;;5.33;100.00;100213.02;1757191;82;21025;-79
2022/12/10 08:03:49;;;;;;;20.77;9.57;;;;;;;5.30;100.00;100205.23;1757626;80;20990;-76
2022/12/10 08:06:19;;;;;;;20.87;9.60;;;;;;;5.27;100.00;100196.94;1757565;82;21013;-77
2022/12/10 08:08:47;;;;;;;21.57;9.47;;;;;;;5.25;100.00;100181.48;1757135;82;21101;-78
2022/12/10 08:11:15;;;;;;;22.53;9.63;;;;;;;5.25;100.00;100185.51;1757558;82;21126;-79
2022/12/10 08:13:43;;;;;;;22.97;9.17;;;;;;;5.24;100.00;100159.70;1755775;82;21084;-78
2022/12/10 08:16:14;;;;;;;21.23;9.37;;;;;;;5.24;100.00;100152.99;1756790;82;21068;-78
2022/12/10 08:18:41;;;;;;;22.30;10.20;;;;;;;5.25;100.00;100144.45;1757686;82;21482;-78
2022/12/10 08:21:13;;;;;;;27.83;11.10;;;;;;;5.23;100.00;100131.67;1757163;82;21052;-79
2022/12/10 08:23:40;;;;;;;24.87;9.97;;;;;;;5.19;100.00;100129.76;1756805;82;21001;-79
2022/12/10 08:26:13;;;;;;;34.57;12.20;;;;;;;5.19;100.00;100129.76;1757487;82;21041;-79
2022/12/10 08:28:39;;;;;;;37.87;13.30;;;;;;;5.21;100.00;100134.98;1756950;82;21036;-79
2022/12/10 08:31:09;;;;;;;38.10;13.50;;;;;;;5.22;100.00;100120.58;1757942;82;20992;-79
2022/12/10 08:33:37;;;;;;;25.63;9.63;;;;;;;5.20;100.00;100118.03;1759851;81;20986;-79
2022/12/10 08:36:06;;;;;;;25.30;10.50;;;;;;;5.22;100.00;100125.95;1753206;80;21110;-79
2022/12/10 08:38:33;;;;;;;30.07;11.30;;;;;;;5.25;100.00;100121.66;1738777;81;21049;-80
2022/12/10 08:41:01;;;;;;;29.97;12.27;;;;;;;5.25;100.00;100117.64;1738628;81;21041;-78
2022/12/10 08:43:28;;;;;;;28.67;11.33;;;;;;;5.24;100.00;100107.89;1712668;82;21078;-79
2022/12/10 08:46:00;;;;;;;28.47;12.60;;;;;;;5.25;100.00;100109.09;1737904;82;21037;-77
2022/12/10 08:48:27;;;;;;;27.00;11.73;;;;;;;5.30;100.00;100108.70;1739429;82;21068;-79
2022/12/10 08:50:54;;;;;;;22.07;9.70;;;;;;;5.31;100.00;100111.72;1739544;82;21014;-80
2022/12/10 08:53:22;;;;;;;19.47;9.43;;;;;;;5.36;100.00;100105.97;1739366;82;21041;-79
2022/12/10 08:55:53;;;;;;;15.53;7.30;;;;;;;5.40;100.00;100102.89;1739363;82;21069;-78
2022/12/10 08:58:21;;;;;;;15.07;7.00;;;;;;;5.43;100.00;100095.89;1739070;82;21049;-78
2022/12/10 09:00:49;;;;;;;16.60;7.50;;;;;;;5.46;100.00;100091.60;1738535;82;21077;-78
2022/12/10 09:03:16;;;;;;;16.83;7.60;;;;;;;5.48;100.00;100092.81;1738675;82;21006;-79
2022/12/10 09:05:44;;;;;;;17.47;7.40;;;;;;;5.53;100.00;100093.75;1739447;82;21034;-79
2022/12/10 09:08:11;;;;;;;13.33;6.60;;;;;;;5.56;100.00;100097.48;1738795;82;21021;-79
2022/12/10 09:10:40;;;;;;;15.83;7.53;;;;;;;5.59;100.00;100082.45;1735482;82;21452;-79
2022/12/10 09:13:07;;;;;;;24.23;9.63;;;;;;;5.58;100.00;100077.59;1738751;82;21037;-80
2022/12/10 09:15:34;;;;;;;26.30;11.80;;;;;;;5.62;100.00;100069.62;1739222;82;21045;-78
2022/12/10 09:18:00;;;;;;;17.90;8.60;;;;;;;5.68;100.00;100074.44;1738099;82;21045;-77
2022/12/10 09:20:27;;;;;;;13.13;6.77;;;;;;;5.75;100.00;100063.14;1737298;82;21322;-78
2022/12/10 09:22:54;;;;;;;25.80;10.87;;;;;;;5.80;100.00;100057.70;1737413;82;21120;-78
2022/12/10 09:25:21;;;;;;;26.77;11.53;;;;;;;5.83;100.00;100052.06;1736551;82;21069;-78
2022/12/10 09:27:48;;;;;;;23.00;10.87;;;;;;;5.87;100.00;100045.92;1736594;82;21046;-78
2022/12/10 09:30:15;;;;;;;29.53;13.50;;;;;;;5.92;100.00;100032.09;1736810;82;21033;-77
2022/12/10 09:32:42;;;;;;;30.17;13.07;;;;;;;5.97;100.00;100011.92;1751898;80;21013;-77
2022/12/10 09:35:09;;;;;;;27.70;13.57;;;;;;;6.03;100.00;100016.70;1773940;81;21024;-78
2022/12/10 09:37:35;;;;;;;28.60;13.00;;;;;;;6.06;100.00;100019.11;1794624;79;21041;-76
2022/12/10 09:40:04;;;;;;;24.90;12.47;;;;;;;6.15;100.00;100017.41;1789498;80;21021;-79
2022/12/10 09:43:01;;;;;;;21.03;10.57;;;;;;;6.22;100.00;100025.24;1759754;81;21025;-80
2022/12/10 09:46:07;;;;;;;18.90;9.30;;;;;;;6.24;100.00;100028.62;1683741;81;20999;-80
2022/12/10 09:48:56;;;;;;;17.77;8.00;;;;;;;6.25;100.00;100028.98;1761051;81;20995;-79
2022/12/10 09:51:26;;;;;;;16.73;7.63;;;;;;;6.25;100.00;100034.36;1760082;80;21566;-80
2022/12/10 09:53:58;;;;;;;18.23;8.33;;;;;;;6.25;100.00;100019.59;1759628;81;20974;-80
2022/12/10 09:56:33;;;;;;;18.00;8.57;;;;;;;6.29;100.00;100018.80;1760462;81;21495;-79
2022/12/10 10:13:33;;;;;;;17.10;8.53;;;;;;;6.46;100.00;100232.97;1792779;80;22955;-78
2022/12/10 10:16:26;;;;;;;17.30;8.93;;;;;;;6.50;100.00;99992.23;1768670;80;21110;-80
2022/12/10 10:19:06;;;;;;;24.07;10.73;;;;;;;6.53;100.00;99979.36;1739750;81;21037;-79
2022/12/10 10:21:39;;;;;;;25.80;10.93;;;;;;;6.55;100.00;99974.72;1768471;81;21493;-81
2022/12/10 10:24:07;;;;;;;20.90;9.90;;;;;;;6.56;100.00;99968.33;1763891;81;20996;-77
2022/12/10 10:26:35;;;;;;;22.83;10.03;;;;;;;6.55;100.00;99957.72;1759822;81;21081;-78
2022/12/10 10:29:09;;;;;;;21.03;9.50;;;;;;;6.53;100.00;99965.09;1759389;81;20963;-78
2022/12/10 10:31:38;;;;;;;21.20;9.13;;;;;;;6.53;100.00;99968.61;1759075;81;21431;-80
2022/12/10 10:34:15;;;;;;;19.27;8.73;;;;;;;6.54;100.00;99956.89;1759084;81;21092;-79
2022/12/10 10:36:42;;;;;;;16.03;6.97;;;;;;;6.57;100.00;99966.48;1758364;80;21566;-79
2022/12/10 10:39:28;;;;;;;23.47;9.37;;;;;;;6.59;100.00;99966.70;1757330;81;21319;-78
2022/12/10 10:41:57;;;;;;;21.80;9.40;;;;;;;6.63;100.00;99970.77;1757318;81;21064;-79
2022/12/10 10:44:30;;;;;;;17.30;7.70;;;;;;;6.67;100.00;99968.64;1759814;81;21530;-80
2022/12/10 10:46:57;;;;;;;21.85;8.73;;;;;;;6.69;100.00;99962.61;1760905;81;21530;-79
2022/12/10 10:49:32;;;;;;;19.37;7.83;;;;;;;6.72;100.00;99952.09;1759896;80;21090;-75
2022/12/10 10:52:15;;;;;;;17.23;7.50;;;;;;;6.75;100.00;99949.95;1759967;81;21050;-79
2022/12/10 10:54:44;;;;;;;17.43;7.60;;;;;;;6.76;100.00;99944.90;1760162;81;21487;-78
2022/12/10 10:57:31;;;;;;;19.33;7.67;;;;;;;6.77;100.00;99937.70;1759707;81;21041;-78
2022/12/10 11:00:22;;;;;;;18.13;8.07;;;;;;;6.80;100.00;99941.45;1760858;81;21026;-78
2022/12/10 11:02:48;;;;;;;15.40;7.53;;;;;;;6.80;100.00;99942.28;1759836;81;21479;-76
2022/12/10 11:05:28;;;;;;;19.97;8.30;;;;;;;6.84;100.00;99951.73;1761912;81;21233;-78
2022/12/10 11:08:03;;;;;;;17.47;8.53;;;;;;;6.87;100.00;99950.61;1762073;81;21068;-77
2022/12/10 11:10:30;;;;;;;19.53;9.27;;;;;;;6.92;100.00;99949.63;1761165;81;21069;-77
2022/12/10 11:13:08;;;;;;;18.27;8.97;;;;;;;6.97;100.00;99953.23;1743265;81;21053;-81
2022/12/10 11:15:41;;;;;;;19.20;8.90;;;;;;;6.98;100.00;99948.21;1739643;82;21073;-78
2022/12/10 11:18:34;;;;;;;19.50;8.80;;;;;;;7.04;100.00;99943.05;1740112;82;20989;-80
2022/12/10 11:21:18;;;;;;;19.02;10.00;;;;;;;7.11;100.00;99943.81;1739840;82;21503;-79
2022/12/10 11:23:48;;;;;;;27.87;13.00;;;;;;;7.20;100.00;99942.89;1739674;81;21514;-81
2022/12/10 11:26:44;;;;;;;26.27;14.40;;;;;;;7.25;100.00;99939.77;1739947;82;21041;-79
2022/12/10 11:29:38;;;;;;;24.27;12.90;;;;;;;7.27;100.00;99939.95;1738786;82;21100;-79
2022/12/10 11:32:13;;;;;;;31.73;16.27;;;;;;;7.33;100.00;99931.76;1738696;82;21178;-78
2022/12/10 11:34:55;;;;;;;24.37;12.93;;;;;;;7.37;100.00;99925.93;1707811;83;21080;-78
2022/12/10 11:37:44;;;;;;;30.87;13.83;;;;;;;7.43;100.00;99927.67;1697560;83;21003;-78
2022/12/10 11:40:45;;;;;;;21.03;10.00;;;;;;;7.47;100.00;99920.97;1707632;83;21034;-77
2022/12/10 11:43:33;;;;;;;23.63;11.13;;;;;;;7.51;100.00;99915.65;1726349;83;21066;-77
2022/12/10 11:46:17;;;;;;;22.63;10.60;;;;;;;7.57;100.00;99910.98;1724258;83;21058;-76
2022/12/10 11:49:14;;;;;;;23.60;10.23;;;;;;;7.62;100.00;99913.22;1725167;83;21105;-76
2022/12/10 11:52:00;;;;;;;21.03;8.97;;;;;;;7.64;100.00;99908.02;1726225;82;21014;-78
2022/12/10 11:54:33;;;;;;;;;;;;;;;7.67;100.00;99902.33;1729124;82;21210;-78
2022/12/10 11:57:08;;;;;;;17.83;8.57;;;;;;;7.69;100.00;99901.66;1725597;83;20155;-78
2022/12/10 11:59:58;;;;;;;19.53;9.43;;;;;;;7.72;100.00;99899.14;1725476;83;21567;-77
2022/12/10 12:02:57;;;;;;;18.73;8.53;;;;;;;7.74;100.00;99898.52;1726367;81;21535;-78
2022/12/10 12:05:39;;;;;;;15.43;8.03;;;;;;;7.80;100.00;99896.53;1760845;81;21069;-80
2022/12/10 12:08:40;;;;;;;19.23;8.20;;;;;;;7.80;100.00;99892.49;1760814;81;21069;-79
2022/12/10 12:11:43;;;;;;;19.37;9.37;;;;;;;7.83;100.00;99900.27;1733451;81;21014;-78
2022/12/10 12:14:18;;;;;;;19.40;9.37;;;;;;;7.87;100.00;99898.10;1727199;83;21448;-79
2022/12/10 12:17:06;;;;;;;17.67;8.23;;;;;;;7.94;100.00;99901.86;1727085;82;21014;-79
2022/12/10 12:19:44;;;;;;;19.30;8.37;;;;;;;7.96;100.00;99903.38;1727118;83;21037;-76
2022/12/10 12:22:17;;;;;;;19.33;8.73;;;;;;;7.99;100.00;99897.68;1724582;83;21045;-77
2022/12/10 12:24:46;;;;;;;18.98;9.40;;;;;;;8.01;100.00;99898.03;1726308;83;21022;-78